sensor_id;sensor_type;location;lat;lon;timestamp;P1;durP1;ratioP1;P2;durP2;ratioP2
55537;SDS011;41383;51.418;7.286;2023-04-03T00:00:28;16.25;;;9.15;;
55537;SDS011;41383;51.418;7.286;2023-04-03T00:02:53;17.08;;;10.07;;
55537;SDS011;41383;51.418;7.286;2023-04-03T00:05:18;16.45;;;10.27;;
55537;SDS011;41383;51.418;7.286;2023-04-03T00:07:44;22.70;;;12.10;;
55537;SDS011;41383;51.418;7.286;2023-04-03T00:10:09;20.67;;;12.18;;
55537;SDS011;41383;51.418;7.286;2023-04-03T00:12:35;17.15;;;10.48;;
55537;SDS011;41383;51.418;7.286;2023-04-03T00:15:00;17.15;;;10.65;;
55537;SDS011;41383;51.418;7.286;2023-04-03T00:17:25;18.38;;;10.27;;
55537;SDS011;41383;51.418;7.286;2023-04-03T00:19:50;21.42;;;10.75;;
55537;SDS011;41383;51.418;7.286;2023-04-03T00:22:16;18.45;;;10.18;;
55537;SDS011;41383;51.418;7.286;2023-04-03T00:24:41;23.15;;;10.82;;
55537;SDS011;41383;51.418;7.286;2023-04-03T00:27:06;21.80;;;11.10;;
55537;SDS011;41383;51.418;7.286;2023-04-03T00:29:32;23.08;;;10.43;;
55537;SDS011;41383;51.418;7.286;2023-04-03T00:31:57;18.38;;;11.13;;
55537;SDS011;41383;51.418;7.286;2023-04-03T00:34:22;21.45;;;11.90;;
55537;SDS011;41383;51.418;7.286;2023-04-03T00:36:47;13.73;;;10.13;;
55537;SDS011;41383;51.418;7.286;2023-04-03T00:39:13;14.65;;;10.00;;
55537;SDS011;41383;51.418;7.286;2023-04-03T00:41:38;23.70;;;10.45;;
55537;SDS011;41383;51.418;7.286;2023-04-03T00:44:20;17.73;;;9.40;;
55537;SDS011;41383;51.418;7.286;2023-04-03T00:46:46;20.70;;;10.75;;
55537;SDS011;41383;51.418;7.286;2023-04-03T00:49:11;17.47;;;10.70;;
55537;SDS011;41383;51.418;7.286;2023-04-03T00:51:36;18.17;;;8.40;;
55537;SDS011;41383;51.418;7.286;2023-04-03T00:54:03;15.75;;;11.05;;
55537;SDS011;41383;51.418;7.286;2023-04-03T00:56:31;17.45;;;10.60;;
55537;SDS011;41383;51.418;7.286;2023-04-03T00:58:59;29.60;;;11.93;;
55537;SDS011;41383;51.418;7.286;2023-04-03T01:01:47;16.98;;;10.90;;
55537;SDS011;41383;51.418;7.286;2023-04-03T01:04:29;19.05;;;11.07;;
55537;SDS011;41383;51.418;7.286;2023-04-03T01:06:58;18.45;;;10.15;;
55537;SDS011;41383;51.418;7.286;2023-04-03T01:09:27;18.58;;;11.48;;
55537;SDS011;41383;51.418;7.286;2023-04-03T01:11:54;18.73;;;10.93;;
55537;SDS011;41383;51.418;7.286;2023-04-03T01:14:25;18.08;;;10.07;;
55537;SDS011;41383;51.418;7.286;2023-04-03T01:16:53;19.17;;;9.50;;
55537;SDS011;41383;51.418;7.286;2023-04-03T01:19:19;11.88;;;7.72;;
55537;SDS011;41383;51.418;7.286;2023-04-03T01:21:53;13.55;;;8.23;;
55537;SDS011;41383;51.418;7.286;2023-04-03T01:26:59;13.23;;;8.15;;
55537;SDS011;41383;51.418;7.286;2023-04-03T01:29:27;14.32;;;7.95;;
55537;SDS011;41383;51.418;7.286;2023-04-03T01:31:53;13.23;;;8.38;;
55537;SDS011;41383;51.418;7.286;2023-04-03T01:34:23;10.80;;;6.90;;
55537;SDS011;41383;51.418;7.286;2023-04-03T01:36:49;11.52;;;7.65;;
55537;SDS011;41383;51.418;7.286;2023-04-03T01:39:15;11.43;;;7.07;;
55537;SDS011;41383;51.418;7.286;2023-04-03T01:41:41;12.10;;;6.43;;
55537;SDS011;41383;51.418;7.286;2023-04-03T01:44:06;12.13;;;8.03;;
55537;SDS011;41383;51.418;7.286;2023-04-03T01:46:31;10.50;;;6.68;;
55537;SDS011;41383;51.418;7.286;2023-04-03T01:48:57;13.57;;;7.22;;
55537;SDS011;41383;51.418;7.286;2023-04-03T01:51:22;14.75;;;7.57;;
55537;SDS011;41383;51.418;7.286;2023-04-03T01:53:48;9.63;;;5.95;;
55537;SDS011;41383;51.418;7.286;2023-04-03T01:56:13;11.52;;;6.93;;
55537;SDS011;41383;51.418;7.286;2023-04-03T01:58:39;12.50;;;6.75;;
55537;SDS011;41383;51.418;7.286;2023-04-03T02:01:04;11.55;;;6.57;;
55537;SDS011;41383;51.418;7.286;2023-04-03T02:03:30;13.02;;;6.07;;
55537;SDS011;41383;51.418;7.286;2023-04-03T02:05:55;10.32;;;5.22;;
55537;SDS011;41383;51.418;7.286;2023-04-03T02:08:21;9.20;;;5.60;;
55537;SDS011;41383;51.418;7.286;2023-04-03T02:10:47;11.00;;;4.20;;
55537;SDS011;41383;51.418;7.286;2023-04-03T02:13:13;10.38;;;4.60;;
55537;SDS011;41383;51.418;7.286;2023-04-03T02:15:39;9.60;;;5.22;;
55537;SDS011;41383;51.418;7.286;2023-04-03T02:18:05;8.88;;;5.53;;
55537;SDS011;41383;51.418;7.286;2023-04-03T02:20:30;8.07;;;4.63;;
55537;SDS011;41383;51.418;7.286;2023-04-03T02:22:55;7.55;;;3.75;;
55537;SDS011;41383;51.418;7.286;2023-04-03T02:25:21;6.40;;;4.10;;
55537;SDS011;41383;51.418;7.286;2023-04-03T02:27:46;9.73;;;5.30;;
55537;SDS011;41383;51.418;7.286;2023-04-03T02:30:12;13.15;;;4.90;;
55537;SDS011;41383;51.418;7.286;2023-04-03T02:32:37;10.32;;;4.25;;
55537;SDS011;41383;51.418;7.286;2023-04-03T02:35:03;9.95;;;5.22;;
55537;SDS011;41383;51.418;7.286;2023-04-03T02:37:28;10.40;;;5.82;;
55537;SDS011;41383;51.418;7.286;2023-04-03T02:39:54;14.68;;;7.20;;
55537;SDS011;41383;51.418;7.286;2023-04-03T02:42:20;20.58;;;9.70;;
55537;SDS011;41383;51.418;7.286;2023-04-03T02:44:45;20.00;;;9.27;;
55537;SDS011;41383;51.418;7.286;2023-04-03T02:47:11;14.88;;;6.63;;
55537;SDS011;41383;51.418;7.286;2023-04-03T02:49:36;18.85;;;4.90;;
55537;SDS011;41383;51.418;7.286;2023-04-03T02:52:01;11.37;;;4.20;;
55537;SDS011;41383;51.418;7.286;2023-04-03T02:54:27;7.70;;;3.00;;
55537;SDS011;41383;51.418;7.286;2023-04-03T02:56:55;10.25;;;3.28;;
55537;SDS011;41383;51.418;7.286;2023-04-03T02:59:20;17.13;;;3.05;;
55537;SDS011;41383;51.418;7.286;2023-04-03T03:01:45;6.77;;;3.20;;
55537;SDS011;41383;51.418;7.286;2023-04-03T03:04:11;9.23;;;3.40;;
55537;SDS011;41383;51.418;7.286;2023-04-03T03:06:36;15.25;;;3.33;;
55537;SDS011;41383;51.418;7.286;2023-04-03T03:09:01;4.65;;;2.05;;
55537;SDS011;41383;51.418;7.286;2023-04-03T03:11:28;6.32;;;2.25;;
55537;SDS011;41383;51.418;7.286;2023-04-03T03:13:53;6.15;;;2.13;;
55537;SDS011;41383;51.418;7.286;2023-04-03T03:16:19;8.35;;;2.70;;
55537;SDS011;41383;51.418;7.286;2023-04-03T03:18:44;6.45;;;2.30;;
55537;SDS011;41383;51.418;7.286;2023-04-03T03:21:10;11.13;;;2.40;;
55537;SDS011;41383;51.418;7.286;2023-04-03T03:23:35;4.47;;;1.98;;
55537;SDS011;41383;51.418;7.286;2023-04-03T03:26:02;6.40;;;2.65;;
55537;SDS011;41383;51.418;7.286;2023-04-03T03:28:32;8.05;;;2.03;;
55537;SDS011;41383;51.418;7.286;2023-04-03T03:30:58;4.60;;;1.60;;
55537;SDS011;41383;51.418;7.286;2023-04-03T03:33:24;9.40;;;2.42;;
55537;SDS011;41383;51.418;7.286;2023-04-03T03:35:51;6.38;;;1.95;;
55537;SDS011;41383;51.418;7.286;2023-04-03T03:38:16;6.25;;;2.70;;
55537;SDS011;41383;51.418;7.286;2023-04-03T03:40:41;5.53;;;2.80;;
55537;SDS011;41383;51.418;7.286;2023-04-03T03:43:07;7.60;;;1.83;;
55537;SDS011;41383;51.418;7.286;2023-04-03T03:45:32;9.35;;;2.92;;
55537;SDS011;41383;51.418;7.286;2023-04-03T03:47:57;8.35;;;2.22;;
55537;SDS011;41383;51.418;7.286;2023-04-03T03:50:23;5.28;;;2.05;;
55537;SDS011;41383;51.418;7.286;2023-04-03T03:52:48;8.55;;;1.92;;
55537;SDS011;41383;51.418;7.286;2023-04-03T03:55:13;3.07;;;1.60;;
55537;SDS011;41383;51.418;7.286;2023-04-03T03:57:38;3.55;;;1.73;;
55537;SDS011;41383;51.418;7.286;2023-04-03T04:00:04;4.68;;;1.50;;
55537;SDS011;41383;51.418;7.286;2023-04-03T04:02:32;5.63;;;2.25;;
55537;SDS011;41383;51.418;7.286;2023-04-03T04:04:57;7.68;;;1.73;;
55537;SDS011;41383;51.418;7.286;2023-04-03T04:07:22;4.37;;;1.97;;
55537;SDS011;41383;51.418;7.286;2023-04-03T04:09:47;11.00;;;2.77;;
55537;SDS011;41383;51.418;7.286;2023-04-03T04:12:13;7.55;;;2.00;;
55537;SDS011;41383;51.418;7.286;2023-04-03T04:14:38;8.82;;;2.20;;
55537;SDS011;41383;51.418;7.286;2023-04-03T04:17:03;5.90;;;1.73;;
55537;SDS011;41383;51.418;7.286;2023-04-03T04:19:29;7.43;;;2.30;;
55537;SDS011;41383;51.418;7.286;2023-04-03T04:21:54;6.00;;;2.97;;
55537;SDS011;41383;51.418;7.286;2023-04-03T04:24:19;9.60;;;1.73;;
55537;SDS011;41383;51.418;7.286;2023-04-03T04:26:44;11.48;;;2.25;;
55537;SDS011;41383;51.418;7.286;2023-04-03T04:29:10;7.13;;;1.88;;
55537;SDS011;41383;51.418;7.286;2023-04-03T04:31:35;5.60;;;2.90;;
55537;SDS011;41383;51.418;7.286;2023-04-03T04:34:01;8.77;;;2.15;;
55537;SDS011;41383;51.418;7.286;2023-04-03T04:36:26;10.75;;;3.70;;
55537;SDS011;41383;51.418;7.286;2023-04-03T04:38:51;4.33;;;1.73;;
55537;SDS011;41383;51.418;7.286;2023-04-03T04:41:18;5.63;;;2.22;;
55537;SDS011;41383;51.418;7.286;2023-04-03T04:43:47;7.30;;;2.60;;
55537;SDS011;41383;51.418;7.286;2023-04-03T04:46:12;9.13;;;2.60;;
55537;SDS011;41383;51.418;7.286;2023-04-03T04:48:37;22.23;;;3.28;;
55537;SDS011;41383;51.418;7.286;2023-04-03T04:51:03;3.45;;;1.67;;
55537;SDS011;41383;51.418;7.286;2023-04-03T04:53:28;6.35;;;2.67;;
55537;SDS011;41383;51.418;7.286;2023-04-03T04:55:53;10.65;;;3.28;;
55537;SDS011;41383;51.418;7.286;2023-04-03T04:58:19;8.85;;;3.13;;
55537;SDS011;41383;51.418;7.286;2023-04-03T05:00:45;6.15;;;2.50;;
55537;SDS011;41383;51.418;7.286;2023-04-03T05:03:10;11.85;;;4.07;;
55537;SDS011;41383;51.418;7.286;2023-04-03T05:05:35;6.72;;;2.50;;
55537;SDS011;41383;51.418;7.286;2023-04-03T05:08:01;4.45;;;2.40;;
55537;SDS011;41383;51.418;7.286;2023-04-03T05:10:27;8.63;;;2.42;;
55537;SDS011;41383;51.418;7.286;2023-04-03T05:12:53;5.05;;;2.00;;
55537;SDS011;41383;51.418;7.286;2023-04-03T05:15:18;5.68;;;2.42;;
55537;SDS011;41383;51.418;7.286;2023-04-03T05:17:43;7.18;;;3.15;;
55537;SDS011;41383;51.418;7.286;2023-04-03T05:20:09;4.53;;;1.77;;
55537;SDS011;41383;51.418;7.286;2023-04-03T05:22:34;11.60;;;2.75;;
55537;SDS011;41383;51.418;7.286;2023-04-03T05:25:00;5.15;;;2.35;;
55537;SDS011;41383;51.418;7.286;2023-04-03T05:27:25;8.63;;;2.53;;
55537;SDS011;41383;51.418;7.286;2023-04-03T05:29:52;9.23;;;2.38;;
55537;SDS011;41383;51.418;7.286;2023-04-03T05:32:18;7.20;;;3.03;;
55537;SDS011;41383;51.418;7.286;2023-04-03T05:34:43;4.95;;;1.98;;
55537;SDS011;41383;51.418;7.286;2023-04-03T05:37:08;7.80;;;3.27;;
55537;SDS011;41383;51.418;7.286;2023-04-03T05:39:34;7.85;;;2.80;;
55537;SDS011;41383;51.418;7.286;2023-04-03T05:42:00;5.47;;;2.45;;
55537;SDS011;41383;51.418;7.286;2023-04-03T05:44:25;11.30;;;3.15;;
55537;SDS011;41383;51.418;7.286;2023-04-03T05:46:50;7.43;;;4.05;;
55537;SDS011;41383;51.418;7.286;2023-04-03T05:49:16;7.65;;;2.10;;
55537;SDS011;41383;51.418;7.286;2023-04-03T05:51:41;8.60;;;2.25;;
55537;SDS011;41383;51.418;7.286;2023-04-03T05:54:10;6.40;;;2.65;;
55537;SDS011;41383;51.418;7.286;2023-04-03T05:56:38;8.55;;;2.67;;
55537;SDS011;41383;51.418;7.286;2023-04-03T05:59:04;7.47;;;3.13;;
55537;SDS011;41383;51.418;7.286;2023-04-03T06:01:29;9.13;;;3.22;;
55537;SDS011;41383;51.418;7.286;2023-04-03T06:03:54;8.23;;;4.55;;
55537;SDS011;41383;51.418;7.286;2023-04-03T06:06:20;6.72;;;4.18;;
55537;SDS011;41383;51.418;7.286;2023-04-03T06:08:47;9.55;;;4.78;;
55537;SDS011;41383;51.418;7.286;2023-04-03T06:11:12;9.05;;;3.40;;
55537;SDS011;41383;51.418;7.286;2023-04-03T06:13:37;10.05;;;3.92;;
55537;SDS011;41383;51.418;7.286;2023-04-03T06:16:03;10.05;;;4.38;;
55537;SDS011;41383;51.418;7.286;2023-04-03T06:18:29;17.13;;;3.50;;
55537;SDS011;41383;51.418;7.286;2023-04-03T06:20:55;11.48;;;4.40;;
55537;SDS011;41383;51.418;7.286;2023-04-03T06:23:20;33.15;;;6.07;;
55537;SDS011;41383;51.418;7.286;2023-04-03T06:25:45;9.38;;;3.78;;
55537;SDS011;41383;51.418;7.286;2023-04-03T06:28:11;7.28;;;3.33;;
55537;SDS011;41383;51.418;7.286;2023-04-03T06:30:36;6.93;;;3.28;;
55537;SDS011;41383;51.418;7.286;2023-04-03T06:33:02;9.32;;;3.65;;
55537;SDS011;41383;51.418;7.286;2023-04-03T06:35:28;8.40;;;2.92;;
55537;SDS011;41383;51.418;7.286;2023-04-03T06:37:55;6.72;;;2.40;;
55537;SDS011;41383;51.418;7.286;2023-04-03T06:40:22;5.80;;;2.88;;
55537;SDS011;41383;51.418;7.286;2023-04-03T06:42:48;7.07;;;2.72;;
55537;SDS011;41383;51.418;7.286;2023-04-03T06:45:14;6.75;;;2.22;;
55537;SDS011;41383;51.418;7.286;2023-04-03T06:47:40;8.52;;;2.65;;
55537;SDS011;41383;51.418;7.286;2023-04-03T06:50:05;4.53;;;2.70;;
55537;SDS011;41383;51.418;7.286;2023-04-03T06:52:32;8.18;;;2.30;;
55537;SDS011;41383;51.418;7.286;2023-04-03T06:54:57;5.78;;;2.13;;
55537;SDS011;41383;51.418;7.286;2023-04-03T06:57:24;4.55;;;1.58;;
55537;SDS011;41383;51.418;7.286;2023-04-03T06:59:49;8.20;;;1.98;;
55537;SDS011;41383;51.418;7.286;2023-04-03T07:02:15;5.20;;;2.30;;
55537;SDS011;41383;51.418;7.286;2023-04-03T07:04:40;9.07;;;3.53;;
55537;SDS011;41383;51.418;7.286;2023-04-03T07:07:05;6.00;;;1.83;;
55537;SDS011;41383;51.418;7.286;2023-04-03T07:09:31;6.00;;;2.38;;
55537;SDS011;41383;51.418;7.286;2023-04-03T07:11:56;6.03;;;1.85;;
55537;SDS011;41383;51.418;7.286;2023-04-03T07:14:21;13.95;;;2.95;;
55537;SDS011;41383;51.418;7.286;2023-04-03T07:16:47;5.40;;;2.42;;
55537;SDS011;41383;51.418;7.286;2023-04-03T07:19:12;5.90;;;2.55;;
55537;SDS011;41383;51.418;7.286;2023-04-03T07:21:37;8.57;;;3.45;;
55537;SDS011;41383;51.418;7.286;2023-04-03T07:24:03;7.88;;;3.33;;
55537;SDS011;41383;51.418;7.286;2023-04-03T07:26:28;7.05;;;2.47;;
55537;SDS011;41383;51.418;7.286;2023-04-03T07:28:53;4.35;;;1.77;;
55537;SDS011;41383;51.418;7.286;2023-04-03T07:31:19;8.10;;;2.70;;
55537;SDS011;41383;51.418;7.286;2023-04-03T07:33:45;6.40;;;2.40;;
55537;SDS011;41383;51.418;7.286;2023-04-03T07:36:11;6.05;;;2.63;;
55537;SDS011;41383;51.418;7.286;2023-04-03T07:38:40;8.38;;;3.33;;
55537;SDS011;41383;51.418;7.286;2023-04-03T07:41:06;9.40;;;3.20;;
55537;SDS011;41383;51.418;7.286;2023-04-03T07:43:31;7.15;;;2.42;;
55537;SDS011;41383;51.418;7.286;2023-04-03T07:45:57;3.40;;;2.13;;
55537;SDS011;41383;51.418;7.286;2023-04-03T07:48:24;6.05;;;2.33;;
55537;SDS011;41383;51.418;7.286;2023-04-03T07:50:50;5.70;;;1.83;;
55537;SDS011;41383;51.418;7.286;2023-04-03T07:53:16;5.47;;;1.95;;
55537;SDS011;41383;51.418;7.286;2023-04-03T07:55:42;6.80;;;1.88;;
55537;SDS011;41383;51.418;7.286;2023-04-03T07:58:10;6.20;;;1.42;;
55537;SDS011;41383;51.418;7.286;2023-04-03T08:00:37;6.78;;;1.55;;
55537;SDS011;41383;51.418;7.286;2023-04-03T08:03:03;10.95;;;1.98;;
55537;SDS011;41383;51.418;7.286;2023-04-03T08:05:29;5.00;;;1.60;;
55537;SDS011;41383;51.418;7.286;2023-04-03T08:07:54;3.63;;;1.88;;
55537;SDS011;41383;51.418;7.286;2023-04-03T08:10:19;4.90;;;2.25;;
55537;SDS011;41383;51.418;7.286;2023-04-03T08:12:46;5.93;;;1.38;;
55537;SDS011;41383;51.418;7.286;2023-04-03T08:15:13;4.57;;;1.80;;
55537;SDS011;41383;51.418;7.286;2023-04-03T08:17:38;8.52;;;2.05;;
55537;SDS011;41383;51.418;7.286;2023-04-03T08:20:04;6.18;;;2.38;;
55537;SDS011;41383;51.418;7.286;2023-04-03T08:22:31;4.32;;;1.40;;
55537;SDS011;41383;51.418;7.286;2023-04-03T08:24:57;6.35;;;1.88;;
55537;SDS011;41383;51.418;7.286;2023-04-03T08:27:22;7.53;;;2.57;;
55537;SDS011;41383;51.418;7.286;2023-04-03T08:29:47;8.32;;;1.88;;
55537;SDS011;41383;51.418;7.286;2023-04-03T08:32:13;5.47;;;2.33;;
55537;SDS011;41383;51.418;7.286;2023-04-03T08:34:38;3.50;;;1.50;;
55537;SDS011;41383;51.418;7.286;2023-04-03T08:37:04;5.68;;;1.50;;
55537;SDS011;41383;51.418;7.286;2023-04-03T08:39:30;4.13;;;1.88;;
55537;SDS011;41383;51.418;7.286;2023-04-03T08:41:57;5.13;;;0.90;;
55537;SDS011;41383;51.418;7.286;2023-04-03T08:47:12;3.20;;;1.17;;
55537;SDS011;41383;51.418;7.286;2023-04-03T08:50:10;3.03;;;1.35;;
55537;SDS011;41383;51.418;7.286;2023-04-03T08:55:07;3.90;;;2.15;;
55537;SDS011;41383;51.418;7.286;2023-04-03T08:57:47;5.00;;;1.48;;
55537;SDS011;41383;51.418;7.286;2023-04-03T09:00:18;5.93;;;1.50;;
55537;SDS011;41383;51.418;7.286;2023-04-03T09:02:53;3.42;;;1.38;;
55537;SDS011;41383;51.418;7.286;2023-04-03T09:05:42;2.53;;;0.88;;
55537;SDS011;41383;51.418;7.286;2023-04-03T09:08:21;3.88;;;1.20;;
55537;SDS011;41383;51.418;7.286;2023-04-03T09:10:49;10.88;;;1.58;;
55537;SDS011;41383;51.418;7.286;2023-04-03T09:13:23;3.60;;;1.67;;
55537;SDS011;41383;51.418;7.286;2023-04-03T09:15:59;7.07;;;1.63;;
55537;SDS011;41383;51.418;7.286;2023-04-03T09:18:30;4.13;;;1.67;;
55537;SDS011;41383;51.418;7.286;2023-04-03T09:21:17;4.13;;;1.20;;
55537;SDS011;41383;51.418;7.286;2023-04-03T09:23:50;4.93;;;1.42;;
55537;SDS011;41383;51.418;7.286;2023-04-03T09:26:23;4.85;;;0.90;;
55537;SDS011;41383;51.418;7.286;2023-04-03T09:28:51;8.00;;;1.63;;
55537;SDS011;41383;51.418;7.286;2023-04-03T09:31:27;4.45;;;1.65;;
55537;SDS011;41383;51.418;7.286;2023-04-03T09:33:59;4.68;;;1.30;;
55537;SDS011;41383;51.418;7.286;2023-04-03T09:36:41;4.10;;;1.15;;
55537;SDS011;41383;51.418;7.286;2023-04-03T09:39:13;4.18;;;1.25;;
55537;SDS011;41383;51.418;7.286;2023-04-03T09:41:41;5.43;;;1.42;;
55537;SDS011;41383;51.418;7.286;2023-04-03T09:44:19;3.53;;;1.50;;
55537;SDS011;41383;51.418;7.286;2023-04-03T09:46:50;2.38;;;0.90;;
55537;SDS011;41383;51.418;7.286;2023-04-03T09:49:15;4.80;;;1.00;;
55537;SDS011;41383;51.418;7.286;2023-04-03T09:51:42;3.20;;;0.88;;
55537;SDS011;41383;51.418;7.286;2023-04-03T10:04:45;4.78;;;1.20;;
55537;SDS011;41383;51.418;7.286;2023-04-03T10:07:27;5.07;;;1.73;;
55537;SDS011;41383;51.418;7.286;2023-04-03T10:10:03;8.07;;;1.48;;
55537;SDS011;41383;51.418;7.286;2023-04-03T10:12:44;4.15;;;1.58;;
55537;SDS011;41383;51.418;7.286;2023-04-03T10:15:13;3.38;;;1.48;;
55537;SDS011;41383;51.418;7.286;2023-04-03T10:17:51;3.80;;;1.05;;
55537;SDS011;41383;51.418;7.286;2023-04-03T10:20:26;2.83;;;0.73;;
55537;SDS011;41383;51.418;7.286;2023-04-03T10:23:21;3.60;;;1.50;;
55537;SDS011;41383;51.418;7.286;2023-04-03T10:25:59;3.70;;;1.45;;
55537;SDS011;41383;51.418;7.286;2023-04-03T10:34:24;4.35;;;1.40;;
55537;SDS011;41383;51.418;7.286;2023-04-03T10:37:05;3.08;;;1.08;;
55537;SDS011;41383;51.418;7.286;2023-04-03T10:42:35;2.75;;;1.48;;
55537;SDS011;41383;51.418;7.286;2023-04-03T10:45:29;5.20;;;1.50;;
55537;SDS011;41383;51.418;7.286;2023-04-03T10:48:15;3.53;;;1.15;;
55537;SDS011;41383;51.418;7.286;2023-04-03T10:56:30;13.27;;;1.42;;
55537;SDS011;41383;51.418;7.286;2023-04-03T10:59:15;3.88;;;0.70;;
55537;SDS011;41383;51.418;7.286;2023-04-03T11:01:44;4.60;;;1.63;;
55537;SDS011;41383;51.418;7.286;2023-04-03T11:04:12;4.05;;;0.80;;
55537;SDS011;41383;51.418;7.286;2023-04-03T11:06:43;3.28;;;0.90;;
55537;SDS011;41383;51.418;7.286;2023-04-03T11:12:04;3.67;;;1.02;;
55537;SDS011;41383;51.418;7.286;2023-04-03T11:14:35;8.30;;;1.77;;
55537;SDS011;41383;51.418;7.286;2023-04-03T11:17:11;3.22;;;0.93;;
55537;SDS011;41383;51.418;7.286;2023-04-03T11:19:45;5.18;;;0.75;;
55537;SDS011;41383;51.418;7.286;2023-04-03T11:22:29;2.30;;;0.90;;
55537;SDS011;41383;51.418;7.286;2023-04-03T11:27:40;8.50;;;1.90;;
55537;SDS011;41383;51.418;7.286;2023-04-03T11:30:19;3.92;;;1.50;;
55537;SDS011;41383;51.418;7.286;2023-04-03T11:35:43;2.27;;;0.80;;
55537;SDS011;41383;51.418;7.286;2023-04-03T11:38:13;2.17;;;0.63;;
55537;SDS011;41383;51.418;7.286;2023-04-03T11:40:44;3.28;;;0.70;;
55537;SDS011;41383;51.418;7.286;2023-04-03T11:50:54;7.93;;;0.75;;
55537;SDS011;41383;51.418;7.286;2023-04-03T11:53:26;3.25;;;0.75;;
55537;SDS011;41383;51.418;7.286;2023-04-03T11:55:53;2.38;;;0.65;;
55537;SDS011;41383;51.418;7.286;2023-04-03T12:05:51;1.83;;;0.75;;
55537;SDS011;41383;51.418;7.286;2023-04-03T12:08:49;4.88;;;1.25;;
55537;SDS011;41383;51.418;7.286;2023-04-03T12:11:24;4.55;;;1.13;;
55537;SDS011;41383;51.418;7.286;2023-04-03T12:16:19;5.87;;;1.20;;
55537;SDS011;41383;51.418;7.286;2023-04-03T12:26:46;4.82;;;1.08;;
55537;SDS011;41383;51.418;7.286;2023-04-03T12:29:27;4.88;;;1.25;;
55537;SDS011;41383;51.418;7.286;2023-04-03T12:40:28;1.83;;;0.93;;
55537;SDS011;41383;51.418;7.286;2023-04-03T12:54:01;4.45;;;1.20;;
55537;SDS011;41383;51.418;7.286;2023-04-03T12:56:37;3.58;;;1.23;;
55537;SDS011;41383;51.418;7.286;2023-04-03T12:59:14;5.07;;;1.20;;
55537;SDS011;41383;51.418;7.286;2023-04-03T13:01:52;1.95;;;0.63;;
55537;SDS011;41383;51.418;7.286;2023-04-03T13:04:19;2.40;;;0.88;;
55537;SDS011;41383;51.418;7.286;2023-04-03T13:06:45;3.53;;;1.05;;
55537;SDS011;41383;51.418;7.286;2023-04-03T13:09:20;5.50;;;1.27;;
55537;SDS011;41383;51.418;7.286;2023-04-03T13:11:51;3.38;;;0.82;;
55537;SDS011;41383;51.418;7.286;2023-04-03T13:14:22;3.35;;;0.80;;
55537;SDS011;41383;51.418;7.286;2023-04-03T13:16:57;2.20;;;0.85;;
55537;SDS011;41383;51.418;7.286;2023-04-03T13:19:24;2.80;;;1.08;;
55537;SDS011;41383;51.418;7.286;2023-04-03T13:21:52;5.85;;;0.95;;
55537;SDS011;41383;51.418;7.286;2023-04-03T13:24:27;6.45;;;0.95;;
55537;SDS011;41383;51.418;7.286;2023-04-03T13:26:55;2.25;;;0.70;;
55537;SDS011;41383;51.418;7.286;2023-04-03T13:29:28;5.97;;;0.98;;
55537;SDS011;41383;51.418;7.286;2023-04-03T13:31:57;2.33;;;0.77;;
55537;SDS011;41383;51.418;7.286;2023-04-03T13:34:25;2.20;;;1.02;;
55537;SDS011;41383;51.418;7.286;2023-04-03T13:41:48;3.08;;;0.80;;
55537;SDS011;41383;51.418;7.286;2023-04-03T13:47:22;6.95;;;1.38;;
55537;SDS011;41383;51.418;7.286;2023-04-03T13:49:46;4.85;;;1.30;;
55537;SDS011;41383;51.418;7.286;2023-04-03T13:52:32;3.13;;;1.10;;
55537;SDS011;41383;51.418;7.286;2023-04-03T13:55:19;3.75;;;1.10;;
55537;SDS011;41383;51.418;7.286;2023-04-03T13:57:54;2.97;;;1.25;;
55537;SDS011;41383;51.418;7.286;2023-04-03T14:03:32;13.93;;;1.35;;
55537;SDS011;41383;51.418;7.286;2023-04-03T14:06:18;6.15;;;1.90;;
55537;SDS011;41383;51.418;7.286;2023-04-03T14:08:44;2.92;;;1.17;;
55537;SDS011;41383;51.418;7.286;2023-04-03T14:11:15;7.10;;;1.40;;
55537;SDS011;41383;51.418;7.286;2023-04-03T14:13:47;3.67;;;0.85;;
55537;SDS011;41383;51.418;7.286;2023-04-03T14:16:14;9.00;;;1.45;;
55537;SDS011;41383;51.418;7.286;2023-04-03T14:18:41;4.75;;;1.35;;
55537;SDS011;41383;51.418;7.286;2023-04-03T14:21:08;2.20;;;0.88;;
55537;SDS011;41383;51.418;7.286;2023-04-03T14:23:35;3.38;;;1.02;;
55537;SDS011;41383;51.418;7.286;2023-04-03T14:26:01;3.70;;;0.80;;
55537;SDS011;41383;51.418;7.286;2023-04-03T14:28:27;18.80;;;1.35;;
55537;SDS011;41383;51.418;7.286;2023-04-03T14:30:52;2.55;;;1.17;;
55537;SDS011;41383;51.418;7.286;2023-04-03T14:33:19;1.40;;;0.80;;
55537;SDS011;41383;51.418;7.286;2023-04-03T14:35:45;2.95;;;0.82;;
55537;SDS011;41383;51.418;7.286;2023-04-03T14:38:20;4.13;;;0.95;;
55537;SDS011;41383;51.418;7.286;2023-04-03T14:40:47;4.05;;;2.10;;
55537;SDS011;41383;51.418;7.286;2023-04-03T14:43:13;12.05;;;1.38;;
55537;SDS011;41383;51.418;7.286;2023-04-03T14:45:38;3.58;;;1.00;;
55537;SDS011;41383;51.418;7.286;2023-04-03T14:48:04;5.57;;;1.10;;
55537;SDS011;41383;51.418;7.286;2023-04-03T14:50:29;3.33;;;0.80;;
55537;SDS011;41383;51.418;7.286;2023-04-03T14:52:56;4.25;;;1.13;;
55537;SDS011;41383;51.418;7.286;2023-04-03T14:55:24;2.63;;;1.00;;
55537;SDS011;41383;51.418;7.286;2023-04-03T14:57:50;5.53;;;1.45;;
55537;SDS011;41383;51.418;7.286;2023-04-03T15:00:19;3.17;;;0.80;;
55537;SDS011;41383;51.418;7.286;2023-04-03T15:02:46;4.10;;;1.10;;
55537;SDS011;41383;51.418;7.286;2023-04-03T15:05:13;10.65;;;1.25;;
55537;SDS011;41383;51.418;7.286;2023-04-03T15:07:40;4.18;;;0.82;;
55537;SDS011;41383;51.418;7.286;2023-04-03T15:10:18;4.57;;;1.50;;
55537;SDS011;41383;51.418;7.286;2023-04-03T15:12:46;3.08;;;0.90;;
55537;SDS011;41383;51.418;7.286;2023-04-03T15:15:12;15.60;;;2.38;;
55537;SDS011;41383;51.418;7.286;2023-04-03T15:17:39;3.15;;;0.98;;
55537;SDS011;41383;51.418;7.286;2023-04-03T15:20:11;4.70;;;1.35;;
55537;SDS011;41383;51.418;7.286;2023-04-03T15:22:38;5.50;;;1.50;;
55537;SDS011;41383;51.418;7.286;2023-04-03T15:25:03;5.60;;;1.92;;
55537;SDS011;41383;51.418;7.286;2023-04-03T15:27:29;5.47;;;1.88;;
55537;SDS011;41383;51.418;7.286;2023-04-03T15:29:55;4.20;;;1.65;;
55537;SDS011;41383;51.418;7.286;2023-04-03T15:32:20;5.97;;;1.38;;
55537;SDS011;41383;51.418;7.286;2023-04-03T15:34:45;2.63;;;1.10;;
55537;SDS011;41383;51.418;7.286;2023-04-03T15:37:11;3.43;;;1.10;;
55537;SDS011;41383;51.418;7.286;2023-04-03T15:39:36;3.97;;;1.30;;
55537;SDS011;41383;51.418;7.286;2023-04-03T15:42:01;3.08;;;1.17;;
55537;SDS011;41383;51.418;7.286;2023-04-03T15:44:31;11.43;;;1.25;;
55537;SDS011;41383;51.418;7.286;2023-04-03T15:46:58;3.13;;;1.30;;
55537;SDS011;41383;51.418;7.286;2023-04-03T15:49:24;3.92;;;1.25;;
55537;SDS011;41383;51.418;7.286;2023-04-03T15:51:50;4.57;;;1.70;;
55537;SDS011;41383;51.418;7.286;2023-04-03T15:54:15;4.95;;;1.30;;
55537;SDS011;41383;51.418;7.286;2023-04-03T15:56:41;3.80;;;1.27;;
55537;SDS011;41383;51.418;7.286;2023-04-03T15:59:06;3.57;;;1.40;;
55537;SDS011;41383;51.418;7.286;2023-04-03T16:01:31;2.80;;;1.03;;
55537;SDS011;41383;51.418;7.286;2023-04-03T16:03:57;11.63;;;2.22;;
55537;SDS011;41383;51.418;7.286;2023-04-03T16:06:22;2.38;;;1.27;;
55537;SDS011;41383;51.418;7.286;2023-04-03T16:08:49;4.88;;;1.73;;
55537;SDS011;41383;51.418;7.286;2023-04-03T16:11:15;5.40;;;1.45;;
55537;SDS011;41383;51.418;7.286;2023-04-03T16:13:40;3.07;;;1.30;;
55537;SDS011;41383;51.418;7.286;2023-04-03T16:16:05;5.35;;;1.80;;
55537;SDS011;41383;51.418;7.286;2023-04-03T16:18:31;4.32;;;1.00;;
55537;SDS011;41383;51.418;7.286;2023-04-03T16:20:58;4.65;;;1.63;;
55537;SDS011;41383;51.418;7.286;2023-04-03T16:23:24;3.85;;;1.27;;
55537;SDS011;41383;51.418;7.286;2023-04-03T16:25:49;5.63;;;1.88;;